createdAt,value
2023-05-22T00:01:26.672Z,81.02
2023-05-22T00:06:28.822Z,81.69
2023-05-22T00:11:31.105Z,81.37
2023-05-22T00:16:33.386Z,79.99
2023-05-22T00:21:37.721Z,81.44
2023-05-22T00:26:40.001Z,81.71
2023-05-22T00:31:42.205Z,83.29
2023-05-22T00:36:44.831Z,82.12
2023-05-22T00:41:47.505Z,82.66
2023-05-22T00:46:51.264Z,82.29
2023-05-22T00:51:53.508Z,83.02
2023-05-22T00:56:56.023Z,82.41
2023-05-22T01:01:58.810Z,85.04
2023-05-22T01:07:03.155Z,88.46
2023-05-22T01:12:36.535Z,89.61
2023-05-22T01:18:11.422Z,85.76
2023-05-22T01:23:44.767Z,85.16
2023-05-22T01:29:04.832Z,85.74
2023-05-22T01:34:12.662Z,83.96
2023-05-22T01:39:17.528Z,82.19
2023-05-22T01:44:20.901Z,87.18
2023-05-22T01:49:24.035Z,89.80
2023-05-22T01:54:42.469Z,89.86
2023-05-22T01:59:55.631Z,86.00
2023-05-22T02:05:01.482Z,84.28
2023-05-22T02:10:05.699Z,88.11
2023-05-22T02:15:09.517Z,90.27
2023-05-22T02:20:15.708Z,86.36
2023-05-22T02:25:19.093Z,85.34
2023-05-22T02:30:21.587Z,84.18
2023-05-22T02:35:26.425Z,84.04
2023-05-22T02:40:28.636Z,86.18
2023-05-22T02:45:31.437Z,86.10
2023-05-22T02:50:33.671Z,86.19
2023-05-22T02:55:36.131Z,83.82
2023-05-22T03:00:39.124Z,83.00
2023-05-22T03:05:41.482Z,80.95
2023-05-22T03:10:44.651Z,83.78
2023-05-22T03:15:47.188Z,84.47
2023-05-22T03:20:51.303Z,84.14
2023-05-22T03:25:53.557Z,88.67
2023-05-22T03:30:57.470Z,89.74
2023-05-22T03:36:03.832Z,90.10
2023-05-22T03:41:06.207Z,87.62
2023-05-22T03:46:08.567Z,86.33
2023-05-22T03:51:10.769Z,86.98
2023-05-22T03:56:13.652Z,85.60
2023-05-22T04:01:17.127Z,85.36
2023-05-22T04:06:22.422Z,84.05
2023-05-22T04:11:24.749Z,86.96
2023-05-22T04:16:29.027Z,86.35
2023-05-22T04:21:35.883Z,86.10
2023-05-22T04:26:41.007Z,86.95
2023-05-22T04:31:44.777Z,90.11
2023-05-22T04:36:48.219Z,90.01
2023-05-22T04:41:50.670Z,88.75
2023-05-22T04:46:53.953Z,85.02
2023-05-22T04:51:57.598Z,85.45
2023-05-22T04:57:00.059Z,84.67
2023-05-22T05:02:02.480Z,82.67
2023-05-22T05:07:06.306Z,83.30
2023-05-22T05:12:08.913Z,84.22
2023-05-22T05:17:11.341Z,84.18
2023-05-22T05:22:15.663Z,83.09
2023-05-22T05:27:18.276Z,84.55
2023-05-22T05:32:21.147Z,83.95
2023-05-22T05:37:35.483Z,83.80
2023-05-22T05:42:39.579Z,84.55
2023-05-22T05:47:44.461Z,82.36
2023-05-22T05:52:47.096Z,81.31
2023-05-22T05:57:52.589Z,82.52
2023-05-22T06:03:01.632Z,82.08
2023-05-22T06:08:32.630Z,81.15
2023-05-22T06:13:35.333Z,79.48
2023-05-22T06:18:37.515Z,78.99
2023-05-22T06:23:40.415Z,78.57
2023-05-22T06:28:45.304Z,76.65
2023-05-22T06:33:47.890Z,77.47
2023-05-22T06:38:50.475Z,80.56
2023-05-22T06:44:16.129Z,77.99
2023-05-22T06:49:19.399Z,75.48
2023-05-22T06:54:28.782Z,72.74
2023-05-22T06:59:32.892Z,71.14
2023-05-22T07:04:40.769Z,68.93
2023-05-22T07:09:47.645Z,68.37
2023-05-22T07:14:50.511Z,67.62
2023-05-22T07:19:53.121Z,67.81
2023-05-22T07:24:56.228Z,65.19
2023-05-22T07:30:03.432Z,63.48
2023-05-22T07:35:08.195Z,61.71
2023-05-22T07:40:11.407Z,59.05
2023-05-22T07:45:13.880Z,58.50
2023-05-22T07:50:17.205Z,58.55
2023-05-22T07:55:21.425Z,58.38
2023-05-22T08:00:25.516Z,59.40
2023-05-22T08:05:27.786Z,61.53
2023-05-22T08:10:41.706Z,60.16
2023-05-22T08:15:49.751Z,58.61
2023-05-22T08:20:54.945Z,57.70
2023-05-22T08:25:58.203Z,59.81
2023-05-22T08:31:00.385Z,58.36
2023-05-22T08:36:02.521Z,58.40
2023-05-22T08:41:06.957Z,54.69
2023-05-22T08:46:10.742Z,54.76
2023-05-22T08:51:18.885Z,55.81
2023-05-22T08:56:22.429Z,55.93
2023-05-22T09:01:25.281Z,57.07
2023-05-22T09:06:29.379Z,58.39
2023-05-22T09:11:31.729Z,53.94
2023-05-22T09:16:34.251Z,48.58
2023-05-22T09:21:37.509Z,48.72
2023-05-22T09:26:40.575Z,48.58
2023-05-22T09:31:44.935Z,49.62
2023-05-22T09:36:51.505Z,52.31
2023-05-22T09:41:53.671Z,53.98
2023-05-22T09:46:56.012Z,54.37
2023-05-22T09:51:59.392Z,50.98
2023-05-22T09:57:05.044Z,45.86
2023-05-22T10:02:09.150Z,46.41
2023-05-22T10:07:14.259Z,47.48
2023-05-22T10:12:20.972Z,49.35
2023-05-22T10:17:25.079Z,48.19
2023-05-22T10:22:29.501Z,47.83
2023-05-22T10:27:32.106Z,45.94
2023-05-22T10:32:48.056Z,42.94
2023-05-22T10:38:03.654Z,42.77
2023-05-22T10:43:06.009Z,41.11
2023-05-22T10:48:12.009Z,41.08
2023-05-22T10:53:28.246Z,40.36
2023-05-22T10:58:34.611Z,40.11
2023-05-22T11:04:00.536Z,40.02
2023-05-22T11:09:20.645Z,39.21
2023-05-22T11:14:26.001Z,39.44
2023-05-22T11:19:28.332Z,39.82
2023-05-22T11:24:34.648Z,39.82
2023-05-22T11:29:39.101Z,38.42
2023-05-22T11:34:43.267Z,38.34
2023-05-22T11:40:01.052Z,37.33
2023-05-22T11:45:04.904Z,37.55
2023-05-22T11:50:10.940Z,37.04
2023-05-22T11:55:13.167Z,37.43
2023-05-22T12:00:16.395Z,37.43
2023-05-22T12:05:21.994Z,37.33
2023-05-22T12:10:26.274Z,37.34
2023-05-22T12:15:28.633Z,37.16
2023-05-22T12:20:31.450Z,37.25
2023-05-22T12:25:37.409Z,37.34
2023-05-22T12:30:42.243Z,36.76
2023-05-22T12:35:44.553Z,37.00
2023-05-22T12:40:47.240Z,36.69
2023-05-22T12:45:50.001Z,36.76
2023-05-22T12:50:52.283Z,36.80
2023-05-22T12:55:54.388Z,36.68
2023-05-22T13:00:56.705Z,36.68
2023-05-22T13:05:58.906Z,35.06
2023-05-22T13:11:01.294Z,36.76
2023-05-22T13:16:03.497Z,37.20
2023-05-22T13:21:06.451Z,37.98
2023-05-22T13:26:08.805Z,37.31
2023-05-22T13:31:11.018Z,37.91
2023-05-22T13:36:13.530Z,38.52
2023-05-22T13:41:16.159Z,38.55
2023-05-22T13:46:20.660Z,42.56
2023-05-22T13:51:22.879Z,43.51
2023-05-22T13:56:24.989Z,41.27
2023-05-22T14:01:27.728Z,42.35
2023-05-22T14:06:30.030Z,41.41
2023-05-22T14:11:32.228Z,41.11
2023-05-22T14:16:34.500Z,41.20
2023-05-22T14:21:36.723Z,40.12
2023-05-22T14:26:39.418Z,41.98
2023-05-22T14:31:51.792Z,38.71
2023-05-22T14:36:56.656Z,38.35
2023-05-22T14:41:58.822Z,44.09
2023-05-22T14:47:01.101Z,45.19
2023-05-22T14:52:03.273Z,42.80
2023-05-22T14:57:05.762Z,45.52
2023-05-22T15:02:08.107Z,47.23
2023-05-22T15:07:10.375Z,46.93
2023-05-22T15:12:15.664Z,46.75
2023-05-22T15:17:18.261Z,47.78
2023-05-22T15:22:20.543Z,48.55
2023-05-22T15:27:22.839Z,48.84
2023-05-22T15:32:25.018Z,48.26
2023-05-22T15:37:29.736Z,51.39
2023-05-22T15:42:33.869Z,50.11
2023-05-22T15:47:36.038Z,50.92
2023-05-22T15:52:38.549Z,52.10
2023-05-22T15:57:40.830Z,51.57
2023-05-22T16:02:43.509Z,50.11
2023-05-22T16:07:46.216Z,49.47
2023-05-22T16:12:48.563Z,48.03
2023-05-22T16:17:50.897Z,47.63
2023-05-22T16:22:53.125Z,48.55
2023-05-22T16:27:55.420Z,48.58
2023-05-22T16:32:57.840Z,49.23
2023-05-22T16:38:00.006Z,49.57
2023-05-22T16:43:02.369Z,51.14
2023-05-22T16:48:04.697Z,50.99
2023-05-22T16:53:06.934Z,50.62
2023-05-22T16:58:13.013Z,51.01
2023-05-22T17:03:15.557Z,49.95
2023-05-22T17:08:18.264Z,50.97
2023-05-22T17:13:21.210Z,51.52
2023-05-22T17:18:23.514Z,53.87
2023-05-22T17:23:25.994Z,55.01
2023-05-22T17:28:28.128Z,56.18
2023-05-22T17:33:30.309Z,56.27
2023-05-22T17:38:32.458Z,55.84
2023-05-22T17:43:35.485Z,56.79
2023-05-22T17:48:37.613Z,57.15
2023-05-22T17:53:39.828Z,58.54
2023-05-22T17:58:41.934Z,59.78
2023-05-22T18:03:46.303Z,60.28
2023-05-22T18:08:48.973Z,60.02
2023-05-22T18:13:51.112Z,59.29
2023-05-22T18:18:53.390Z,62.29
2023-05-22T18:23:56.062Z,61.35
2023-05-22T18:28:58.242Z,62.25
2023-05-22T18:34:00.445Z,63.25
2023-05-22T18:39:02.667Z,60.64
2023-05-22T18:44:04.840Z,63.11
2023-05-22T18:49:07.077Z,61.10
2023-05-22T18:54:09.298Z,63.71
2023-05-22T18:59:11.500Z,61.24
2023-05-22T19:04:13.709Z,62.96
2023-05-22T19:09:19.065Z,64.18
2023-05-22T19:14:21.385Z,61.54
2023-05-22T19:19:23.526Z,62.96
2023-05-22T19:24:27.708Z,64.04
2023-05-22T19:29:29.901Z,64.57
2023-05-22T19:34:32.207Z,65.07
2023-05-22T19:39:34.432Z,66.90
2023-05-22T19:44:36.647Z,67.43
2023-05-22T19:49:38.853Z,67.63
2023-05-22T19:54:40.999Z,66.93
2023-05-22T19:59:43.304Z,67.93
2023-05-22T20:04:48.625Z,66.20
2023-05-22T20:09:51.572Z,66.94
2023-05-22T20:14:54.353Z,67.12
2023-05-22T20:19:58.913Z,67.41
2023-05-22T20:25:01.627Z,67.71
2023-05-22T20:30:04.697Z,68.42
2023-05-22T20:35:11.025Z,67.45
2023-05-22T20:40:14.586Z,67.22
2023-05-22T20:45:17.658Z,65.99
2023-05-22T20:50:20.035Z,68.10
2023-05-22T20:55:22.309Z,67.62
2023-05-22T21:00:24.485Z,67.51
2023-05-22T21:05:26.674Z,67.59
2023-05-22T21:10:28.963Z,67.71
2023-05-22T21:15:31.103Z,67.54
2023-05-22T21:20:33.204Z,66.36
2023-05-22T21:25:35.377Z,65.18
2023-05-22T21:30:37.703Z,66.48
2023-05-22T21:35:39.995Z,69.31
2023-05-22T21:40:43.063Z,67.42
2023-05-22T21:45:45.355Z,69.34
2023-05-22T21:50:47.957Z,66.60
2023-05-22T21:55:50.338Z,68.43
2023-05-22T22:00:54.705Z,68.08
2023-05-22T22:05:56.826Z,67.21
2023-05-22T22:10:59.745Z,67.78
2023-05-22T22:16:02.019Z,66.58
2023-05-22T22:21:04.782Z,66.94
2023-05-22T22:26:07.582Z,67.30
2023-05-22T22:31:10.027Z,69.53
2023-05-22T22:36:12.166Z,68.52
2023-05-22T22:41:14.317Z,68.88
2023-05-22T22:46:16.929Z,66.79
2023-05-22T22:51:20.209Z,68.83
2023-05-22T22:56:28.257Z,74.33
2023-05-22T23:01:30.556Z,78.35
2023-05-22T23:06:33.103Z,80.90
2023-05-22T23:11:37.845Z,80.42
2023-05-22T23:16:43.531Z,83.07
2023-05-22T23:21:46.215Z,85.12
2023-05-22T23:26:48.703Z,85.45
2023-05-22T23:31:50.957Z,89.52
2023-05-22T23:36:53.151Z,87.66
2023-05-22T23:41:55.361Z,86.76
2023-05-22T23:46:57.929Z,87.74
2023-05-22T23:52:00.352Z,87.81
2023-05-22T23:57:02.488Z,84.15
